This is the latest recevied weather packets stored in our database for station/object K0TNT-10. If no packets are shown the sender has not sent any weather packets the latest 10 day(s).
| Time | Temp. | Humidity | Pressure | Rain* | Wind** | Luminosity | Snow |
|---|---|---|---|---|---|---|---|
| 1777301144 | 17.22° C | 89% | 1001.4 hPa | 0.25 mm | - | - | - |
| 1777297545 | 16.11° C | 96% | 1000.8 hPa | 0 mm | - | - | - |
| 1777291231 | 14.44° C | 96% | 1001.1 hPa | 0 mm | - | - | - |
| 1777286739 | 14.44° C | 96% | 1000 hPa | 0 mm | - | - | - |
| 1777285819 | 14.44° C | 96% | 1000 hPa | 0.25 mm | - | - | - |
| 1777284959 | 14.44° C | 96% | 1000.1 hPa | 1.78 mm | - | - | - |
| 1777275043 | 15° C | 95% | 999.9 hPa | 23.37 mm | - | - | - |
| 1777272341 | 15.56° C | 95% | 1001.4 hPa | 23.88 mm | - | - | - |
| 1777268722 | 16.67° C | 93% | 1002.6 hPa | 0 mm | - | - | - |
| 1777267809 | 16.67° C | 93% | 1001.4 hPa | 0 mm | - | - | - |
| 1777266939 | 16.67° C | 93% | 1000.3 hPa | 0 mm | - | - | - |
| 1777261527 | 16.67° C | 94% | 1003.6 hPa | 0 mm | - | - | - |
| 1777258838 | 16.67° C | 94% | 1002.8 hPa | 0 mm | - | - | - |
| 1777257026 | 16.67° C | 94% | 1002.8 hPa | 0 mm | - | - | - |
| 1777248030 | 17.22° C | 93% | 1004 hPa | 0.25 mm | - | - | - |
| 1777244428 | 16.11° C | 94% | 1004.1 hPa | 5.84 mm | - | - | - |
| 1777238142 | 16.11° C | 94% | 1005.1 hPa | 2.54 mm | - | - | - |
| 1777230934 | 16.11° C | 89% | 1006.2 hPa | 5.59 mm | - | - | - |
| 1777230021 | 18.89° C | 84% | 1006.8 hPa | 0.76 mm | - | - | - |
| 1777225559 | 20° C | 72% | 1006.4 hPa | 0 mm | - | - | - |
| 1777221004 | 20.56° C | 72% | 1007.5 hPa | 0 mm | - | - | - |
| 1777218355 | 19.44° C | 78% | 1008.2 hPa | 0 mm | - | - | - |
| 1777215653 | 18.33° C | 81% | 1008.6 hPa | 0 mm | - | - | - |
| 1777213833 | 17.22° C | 85% | 1008.8 hPa | 0 mm | - | - | - |
| 1777212021 | 15° C | 90% | 1009.2 hPa | 0 mm | - | - | - |
* Rain latest hour (hover to see other rain measurements)
** Current wind speed in m/s (hover to see current wind gust speed)